createdAt,value
2018-10-11T00:02:10.618Z,20.97
2018-10-11T00:04:38.804Z,21.17
2018-10-11T00:07:07.177Z,19.57
2018-10-11T00:09:35.278Z,19.60
2018-10-11T00:12:03.466Z,21.23
2018-10-11T00:14:31.678Z,23.30
2018-10-11T00:16:59.877Z,18.57
2018-10-11T00:19:28.030Z,23.47
2018-10-11T00:21:56.113Z,17.65
2018-10-11T00:24:24.313Z,20.02
2018-10-11T00:26:52.714Z,19.30
2018-10-11T00:29:20.882Z,18.52
2018-10-11T00:31:49.054Z,19.80
2018-10-11T00:34:17.251Z,19.87
2018-10-11T00:36:45.442Z,23.10
2018-10-11T00:39:13.623Z,19.62
2018-10-11T00:41:41.751Z,20.60
2018-10-11T00:44:10.139Z,23.85
2018-10-11T00:46:38.301Z,18.40
2018-10-11T00:49:06.502Z,23.10
2018-10-11T00:51:34.692Z,24.10
2018-10-11T00:54:02.870Z,18.70
2018-10-11T00:56:31.054Z,19.62
2018-10-11T00:58:59.250Z,25.90
2018-10-11T01:01:28.458Z,21.25
2018-10-11T01:03:56.646Z,20.72
2018-10-11T01:06:24.830Z,19.87
2018-10-11T01:08:53.023Z,21.73
2018-10-11T01:11:21.184Z,23.38
2018-10-11T01:13:49.370Z,21.52
2018-10-11T01:16:17.615Z,20.52
2018-10-11T01:18:45.704Z,23.90
2018-10-11T01:21:13.828Z,26.35
2018-10-11T01:23:42.034Z,23.10
2018-10-11T01:26:10.185Z,18.25
2018-10-11T01:28:38.292Z,23.50
2018-10-11T01:31:12.058Z,25.12
2018-10-11T01:33:40.236Z,31.57
2018-10-11T01:36:08.374Z,27.87
2018-10-11T01:38:36.600Z,23.70
2018-10-11T01:41:04.661Z,23.62
2018-10-11T01:43:32.834Z,22.73
2018-10-11T01:46:01.030Z,22.70
2018-10-11T01:48:29.201Z,23.42
2018-10-11T01:50:57.398Z,20.45
2018-10-11T01:53:25.582Z,24.87
2018-10-11T01:55:53.774Z,23.07
2018-10-11T01:58:21.958Z,21.82
2018-10-11T02:00:50.150Z,28.02
2018-10-11T02:03:18.327Z,25.20
2018-10-11T02:05:46.519Z,25.35
2018-10-11T02:08:14.694Z,21.60
2018-10-11T02:10:42.898Z,22.10
2018-10-11T02:13:11.070Z,21.52
2018-10-11T02:15:39.273Z,21.37
2018-10-11T02:18:07.447Z,24.52
2018-10-11T02:20:35.642Z,21.40
2018-10-11T02:23:03.823Z,21.02
2018-10-11T02:25:32.014Z,24.40
2018-10-11T02:28:00.194Z,22.07
2018-10-11T02:30:28.390Z,22.77
2018-10-11T02:32:56.572Z,27.45
2018-10-11T02:35:24.767Z,21.65
2018-10-11T02:37:52.944Z,25.08
2018-10-11T02:40:21.146Z,21.10
2018-10-11T02:42:49.337Z,24.67
2018-10-11T02:45:17.510Z,25.57
2018-10-11T02:47:45.706Z,25.77
2018-10-11T02:50:13.885Z,22.32
2018-10-11T02:52:42.073Z,24.90
2018-10-11T02:55:15.093Z,20.23
2018-10-11T02:57:54.642Z,24.80
2018-10-11T03:00:22.831Z,22.70
2018-10-11T03:02:51.025Z,21.68
2018-10-11T03:05:19.186Z,27.15
2018-10-11T03:07:47.515Z,22.95
2018-10-11T03:10:15.691Z,25.97
2018-10-11T03:12:43.858Z,23.95
2018-10-11T03:15:12.043Z,30.82
2018-10-11T03:17:40.240Z,25.88
2018-10-11T03:20:08.418Z,28.07
2018-10-11T03:22:36.607Z,25.72
2018-10-11T03:25:04.796Z,24.07
2018-10-11T03:27:32.979Z,22.90
2018-10-11T03:30:01.165Z,26.02
2018-10-11T03:32:29.258Z,25.70
2018-10-11T03:34:57.446Z,23.87
2018-10-11T03:37:25.629Z,26.10
2018-10-11T03:39:53.816Z,27.65
2018-10-11T03:42:21.994Z,28.12
2018-10-11T03:44:50.171Z,27.67
2018-10-11T03:47:18.368Z,24.57
2018-10-11T03:49:46.559Z,27.07
2018-10-11T03:52:14.734Z,24.50
2018-10-11T03:54:43.151Z,29.15
2018-10-11T03:57:11.318Z,26.97
2018-10-11T03:59:39.500Z,26.27
2018-10-11T04:02:07.719Z,24.32
2018-10-11T04:04:35.874Z,26.73
2018-10-11T04:07:04.067Z,24.63
2018-10-11T04:09:32.145Z,23.38
2018-10-11T04:12:00.334Z,24.05
2018-10-11T04:14:28.510Z,25.65
2018-10-11T04:16:56.722Z,26.50
2018-10-11T04:19:24.893Z,28.12
2018-10-11T04:21:53.231Z,28.50
2018-10-11T04:24:21.370Z,27.25
2018-10-11T04:26:49.551Z,29.80
2018-10-11T04:29:17.760Z,27.65
2018-10-11T04:31:46.226Z,29.15
2018-10-11T04:34:14.334Z,27.62
2018-10-11T04:36:42.738Z,28.17
2018-10-11T04:39:10.914Z,27.85
2018-10-11T04:41:39.413Z,25.55
2018-10-11T04:44:07.603Z,25.48
2018-10-11T04:46:35.774Z,28.15
2018-10-11T04:49:03.978Z,25.68
2018-10-11T04:51:33.175Z,26.60
2018-10-11T04:54:01.283Z,26.60
2018-10-11T04:56:29.566Z,27.35
2018-10-11T04:58:58.282Z,26.77
2018-10-11T05:01:27.099Z,27.13
2018-10-11T05:03:55.246Z,27.65
2018-10-11T05:06:23.423Z,33.10
2018-10-11T05:08:51.617Z,26.20
2018-10-11T05:11:19.802Z,33.45
2018-10-11T05:13:49.652Z,27.93
2018-10-11T05:16:17.946Z,27.55
2018-10-11T05:18:51.511Z,24.30
2018-10-11T05:21:19.782Z,28.57
2018-10-11T05:23:47.910Z,28.95
2018-10-11T05:26:16.195Z,30.43
2018-10-11T05:28:44.285Z,31.57
2018-10-11T05:31:12.485Z,26.62
2018-10-11T05:33:41.595Z,28.52
2018-10-11T05:36:09.749Z,30.75
2018-10-11T05:38:37.962Z,30.45
2018-10-11T05:41:06.357Z,29.20
2018-10-11T05:43:34.529Z,27.42
2018-10-11T05:46:03.910Z,29.75
2018-10-11T05:48:33.331Z,28.83
2018-10-11T05:51:02.134Z,32.98
2018-10-11T05:53:30.243Z,36.35
2018-10-11T05:55:58.658Z,30.40
2018-10-11T05:58:27.346Z,29.23
2018-10-11T06:00:55.750Z,26.07
2018-10-11T06:03:23.928Z,26.75
2018-10-11T06:05:52.106Z,28.02
2018-10-11T06:08:20.570Z,28.38
2018-10-11T06:10:49.155Z,28.38
2018-10-11T06:13:17.346Z,28.85
2018-10-11T06:15:45.474Z,31.42
2018-10-11T06:18:13.779Z,29.05
2018-10-11T06:20:42.273Z,33.30
2018-10-11T06:23:10.462Z,34.78
2018-10-11T06:25:38.630Z,28.30
2018-10-11T06:28:07.179Z,30.20
2018-10-11T06:30:35.542Z,28.50
2018-10-11T06:33:03.716Z,32.70
2018-10-11T06:35:32.166Z,33.40
2018-10-11T06:38:00.384Z,32.75
2018-10-11T06:40:29.394Z,28.60
2018-10-11T06:42:57.559Z,28.27
2018-10-11T06:45:25.767Z,27.00
2018-10-11T06:47:57.084Z,31.30
2018-10-11T06:50:25.330Z,35.00
2018-10-11T06:52:53.378Z,30.88
2018-10-11T06:55:21.574Z,32.40
2018-10-11T06:57:49.666Z,29.12
2018-10-11T07:00:17.841Z,44.80
2018-10-11T07:02:46.035Z,31.52
2018-10-11T07:05:14.215Z,29.25
2018-10-11T07:07:42.398Z,31.07
2018-10-11T07:10:10.581Z,29.50
2018-10-11T07:12:38.770Z,27.70
2018-10-11T07:15:07.082Z,34.45
2018-10-11T07:17:35.270Z,31.95
2018-10-11T07:20:03.438Z,27.00
2018-10-11T07:22:31.618Z,28.55
2018-10-11T07:24:59.802Z,28.42
2018-10-11T07:27:28.002Z,28.62
2018-10-11T07:29:56.138Z,30.82
2018-10-11T07:32:24.227Z,29.63
2018-10-11T07:34:52.366Z,32.42
2018-10-11T07:37:20.552Z,36.55
2018-10-11T07:39:48.722Z,35.33
2018-10-11T07:42:16.834Z,31.95
2018-10-11T07:44:45.020Z,34.13
2018-10-11T07:47:13.322Z,31.40
2018-10-11T07:49:41.374Z,29.67
2018-10-11T07:52:09.798Z,29.48
2018-10-11T07:54:37.966Z,29.48
2018-10-11T07:57:06.295Z,30.70
2018-10-11T07:59:34.430Z,29.27
2018-10-11T08:02:02.647Z,28.42
2018-10-11T08:04:30.766Z,28.23
2018-10-11T08:06:58.970Z,32.28
2018-10-11T08:09:27.098Z,32.35
2018-10-11T08:11:55.405Z,34.88
2018-10-11T08:14:23.380Z,30.45
2018-10-11T08:16:51.640Z,34.18
2018-10-11T08:19:19.965Z,31.50
2018-10-11T08:21:47.891Z,35.25
2018-10-11T08:24:15.968Z,33.30
2018-10-11T08:26:44.136Z,34.65
2018-10-11T08:29:12.170Z,31.25
2018-10-11T08:31:41.460Z,35.23
2018-10-11T08:34:09.895Z,43.13
2018-10-11T08:36:37.991Z,33.38
2018-10-11T08:39:08.575Z,32.17
2018-10-11T08:41:37.214Z,31.68
2018-10-11T08:44:05.498Z,36.77
2018-10-11T08:46:33.578Z,37.23
2018-10-11T08:49:01.841Z,29.82
2018-10-11T08:51:29.957Z,33.00
2018-10-11T08:54:03.643Z,35.43
2018-10-11T08:56:31.846Z,29.20
2018-10-11T08:59:00.096Z,28.42
2018-10-11T09:01:29.242Z,28.47
2018-10-11T09:03:57.676Z,30.50
2018-10-11T09:06:25.627Z,32.40
2018-10-11T09:08:53.810Z,26.20
2018-10-11T09:11:22.040Z,32.30
2018-10-11T09:13:50.200Z,31.85
2018-10-11T09:16:18.366Z,33.00
2018-10-11T09:18:46.486Z,34.65
2018-10-11T09:21:14.622Z,31.97
2018-10-11T09:23:42.868Z,30.37
2018-10-11T09:26:11.025Z,33.35
2018-10-11T09:28:39.222Z,35.17
2018-10-11T09:31:07.515Z,28.57
2018-10-11T09:33:35.678Z,29.23
2018-10-11T09:36:03.866Z,30.68
2018-10-11T09:38:32.098Z,25.75
2018-10-11T09:41:00.195Z,30.20
2018-10-11T09:43:28.392Z,33.45
2018-10-11T09:45:56.498Z,30.62
2018-10-11T09:48:24.676Z,28.77
2018-10-11T09:50:52.882Z,29.50
2018-10-11T09:53:21.050Z,26.48
2018-10-11T09:55:49.273Z,24.05
2018-10-11T09:58:17.413Z,27.45
2018-10-11T10:00:50.897Z,28.00
2018-10-11T10:03:19.130Z,25.88
2018-10-11T10:05:47.317Z,29.63
2018-10-11T10:08:15.498Z,24.25
2018-10-11T10:10:43.705Z,25.40
2018-10-11T10:13:11.887Z,29.70
2018-10-11T10:15:40.141Z,26.27
2018-10-11T10:18:08.274Z,34.88
2018-10-11T10:20:36.438Z,30.32
2018-10-11T10:23:04.614Z,24.25
2018-10-11T10:25:32.818Z,30.30
2018-10-11T10:28:00.913Z,27.02
2018-10-11T10:30:34.565Z,25.32
2018-10-11T10:33:02.641Z,33.65
2018-10-11T10:35:30.793Z,28.32
2018-10-11T10:37:58.966Z,30.30
2018-10-11T10:40:27.165Z,25.77
2018-10-11T10:42:55.354Z,25.55
2018-10-11T10:45:23.440Z,24.65
2018-10-11T10:47:51.627Z,25.37
2018-10-11T10:50:19.722Z,29.40
2018-10-11T10:52:47.890Z,29.32
2018-10-11T10:55:16.163Z,25.97
2018-10-11T10:57:44.258Z,28.05
2018-10-11T11:00:12.443Z,27.48
2018-10-11T11:02:40.534Z,28.67
2018-10-11T11:05:08.722Z,28.95
2018-10-11T11:07:36.922Z,31.12
2018-10-11T11:10:05.998Z,25.82
2018-10-11T11:12:34.098Z,25.50
2018-10-11T11:15:02.295Z,30.82
2018-10-11T11:17:30.486Z,26.73
2018-10-11T11:19:58.699Z,31.00
2018-10-11T11:22:26.855Z,29.80
2018-10-11T11:24:55.028Z,29.20
2018-10-11T11:27:23.245Z,25.00
2018-10-11T11:29:51.434Z,30.72
2018-10-11T11:32:19.627Z,28.32
2018-10-11T11:34:47.771Z,25.35
2018-10-11T11:37:16.605Z,23.52
2018-10-11T11:39:44.988Z,25.27
2018-10-11T11:42:13.177Z,26.05
2018-10-11T11:44:41.334Z,23.65
2018-10-11T11:47:09.550Z,21.27
2018-10-11T11:49:37.715Z,26.55
2018-10-11T11:52:06.122Z,23.95
2018-10-11T11:54:34.308Z,24.15
2018-10-11T11:57:02.485Z,22.25
2018-10-11T11:59:30.681Z,23.20
2018-10-11T12:01:58.861Z,24.18
2018-10-11T12:04:27.054Z,20.85
2018-10-11T12:06:55.241Z,19.75
2018-10-11T12:09:23.418Z,20.08
2018-10-11T12:11:51.620Z,20.92
2018-10-11T12:14:19.812Z,19.35
2018-10-11T12:16:48.140Z,25.90
2018-10-11T12:19:16.310Z,26.17
2018-10-11T12:21:44.458Z,19.92
2018-10-11T12:24:12.727Z,26.10
2018-10-11T12:26:40.838Z,21.25
2018-10-11T12:29:09.029Z,20.62
2018-10-11T12:31:37.229Z,25.40
2018-10-11T12:34:05.430Z,20.27
2018-10-11T12:36:33.751Z,25.97
2018-10-11T12:39:01.771Z,23.98
2018-10-11T12:41:29.969Z,25.00
2018-10-11T12:43:58.163Z,27.80
2018-10-11T12:46:26.342Z,27.50
2018-10-11T12:48:54.542Z,26.33
2018-10-11T12:51:23.030Z,24.82
2018-10-11T12:53:51.220Z,21.30
2018-10-11T12:56:19.450Z,24.15
2018-10-11T12:58:47.590Z,27.13
2018-10-11T13:01:18.844Z,27.30
2018-10-11T13:03:43.958Z,23.52
2018-10-11T13:06:12.159Z,25.40
2018-10-11T13:08:40.278Z,23.70
2018-10-11T13:11:08.402Z,24.12
2018-10-11T13:13:36.615Z,31.05
2018-10-11T13:16:05.086Z,27.52
2018-10-11T13:18:32.970Z,26.00
2018-10-11T13:21:01.078Z,23.57
2018-10-11T13:23:29.249Z,26.05
2018-10-11T13:25:57.435Z,23.95
2018-10-11T13:28:25.722Z,26.30
2018-10-11T13:30:53.917Z,24.50
2018-10-11T13:33:22.090Z,24.70
2018-10-11T13:35:50.291Z,23.02
2018-10-11T13:38:18.474Z,23.27
2018-10-11T13:40:46.764Z,21.97
2018-10-11T13:43:14.874Z,21.27
2018-10-11T13:45:43.025Z,19.37
2018-10-11T13:48:11.198Z,18.98
2018-10-11T13:50:39.398Z,19.17
2018-10-11T13:53:07.590Z,23.10
2018-10-11T13:55:35.897Z,21.45
2018-10-11T13:58:04.051Z,24.75
2018-10-11T14:00:32.257Z,27.02
2018-10-11T14:03:00.355Z,19.40
2018-10-11T14:05:28.510Z,19.05
2018-10-11T14:07:56.718Z,22.13
2018-10-11T14:10:24.905Z,18.67
2018-10-11T14:12:52.984Z,25.75
2018-10-11T14:15:21.238Z,21.65
2018-10-11T14:17:49.399Z,22.17
2018-10-11T14:20:17.539Z,20.95
2018-10-11T14:22:45.626Z,19.40
2018-10-11T14:25:13.794Z,21.68
2018-10-11T14:27:41.982Z,20.32
2018-10-11T14:30:10.162Z,21.35
2018-10-11T14:32:38.372Z,19.55
2018-10-11T14:35:06.886Z,18.60
2018-10-11T14:37:35.070Z,20.23
2018-10-11T14:40:03.234Z,21.60
2018-10-11T14:42:31.434Z,22.93
2018-10-11T14:44:59.619Z,23.75
2018-10-11T14:47:27.806Z,20.52
2018-10-11T14:49:55.986Z,19.80
2018-10-11T14:52:24.107Z,22.27
2018-10-11T14:54:52.269Z,18.07
2018-10-11T14:57:20.547Z,19.15
2018-10-11T14:59:48.726Z,19.55
2018-10-11T15:02:16.943Z,21.60
2018-10-11T15:04:45.117Z,21.00
2018-10-11T15:07:13.294Z,20.15
2018-10-11T15:09:41.474Z,18.12
2018-10-11T15:12:09.670Z,15.55
2018-10-11T15:14:37.843Z,16.05
2018-10-11T15:17:06.030Z,14.45
2018-10-11T15:19:34.226Z,18.25
2018-10-11T15:22:02.435Z,13.55
2018-10-11T15:24:30.598Z,15.25
2018-10-11T15:26:58.782Z,17.07
2018-10-11T15:29:27.018Z,20.23
2018-10-11T15:32:58.458Z,16.37
2018-10-11T15:35:26.634Z,23.87
2018-10-11T15:37:54.846Z,16.20
2018-10-11T15:40:23.010Z,11.95
2018-10-11T15:42:51.198Z,17.17
2018-10-11T15:45:19.378Z,16.15
2018-10-11T15:47:48.507Z,15.93
2018-10-11T15:50:16.674Z,16.55
2018-10-11T15:52:44.858Z,17.52
2018-10-11T15:55:13.053Z,14.53
2018-10-11T15:57:41.243Z,16.15
2018-10-11T16:00:09.419Z,12.80
2018-10-11T16:02:37.598Z,13.15
2018-10-11T16:05:05.807Z,23.47
2018-10-11T16:07:33.996Z,15.55
2018-10-11T16:10:02.185Z,14.58
2018-10-11T16:12:30.347Z,12.90
2018-10-11T16:14:58.549Z,17.05
2018-10-11T16:17:26.850Z,15.40
2018-10-11T16:19:55.163Z,14.15
2018-10-11T16:22:23.303Z,14.90
2018-10-11T16:24:51.673Z,21.33
2018-10-11T16:27:19.828Z,13.85
2018-10-11T16:29:48.150Z,18.62
2018-10-11T16:32:16.270Z,16.65
2018-10-11T16:34:44.463Z,20.27
2018-10-11T16:37:12.623Z,15.43
2018-10-11T16:39:40.830Z,12.03
2018-10-11T16:42:09.512Z,17.05
2018-10-11T16:44:37.715Z,16.02
2018-10-11T16:47:05.890Z,14.05
2018-10-11T16:49:34.119Z,13.95
2018-10-11T16:52:02.290Z,13.93
2018-10-11T16:54:30.454Z,17.17
2018-10-11T16:56:58.653Z,16.37
2018-10-11T16:59:26.834Z,15.63
2018-10-11T17:01:55.032Z,16.02
2018-10-11T17:04:30.269Z,13.25
2018-10-11T17:06:58.378Z,16.87
2018-10-11T17:09:26.566Z,16.55
2018-10-11T17:11:54.678Z,18.32
2018-10-11T17:14:22.830Z,15.83
2018-10-11T17:16:51.214Z,16.75
2018-10-11T17:19:19.394Z,15.53
2018-10-11T17:21:47.613Z,13.60
2018-10-11T17:24:15.759Z,17.65
2018-10-11T17:26:43.942Z,16.10
2018-10-11T17:29:12.138Z,13.55
2018-10-11T17:31:40.315Z,18.00
2018-10-11T17:34:08.503Z,21.70
2018-10-11T17:36:36.700Z,18.55
2018-10-11T17:39:07.054Z,19.17
2018-10-11T17:41:35.222Z,14.93
2018-10-11T17:44:03.488Z,19.77
2018-10-11T17:46:31.633Z,19.77
2018-10-11T17:48:59.731Z,17.10
2018-10-11T17:51:27.919Z,19.55
2018-10-11T17:53:56.047Z,23.32
2018-10-11T17:56:24.241Z,22.07
2018-10-11T17:58:52.426Z,23.92
2018-10-11T18:01:20.638Z,18.37
2018-10-11T18:03:48.793Z,25.08
2018-10-11T18:06:17.117Z,18.27
2018-10-11T18:08:45.269Z,21.15
2018-10-11T18:11:13.463Z,17.98
2018-10-11T18:13:41.646Z,18.73
2018-10-11T18:16:09.851Z,24.65
2018-10-11T18:18:38.027Z,22.30
2018-10-11T18:21:06.883Z,20.92
2018-10-11T18:23:35.024Z,21.20
2018-10-11T18:26:03.193Z,21.85
2018-10-11T18:28:31.374Z,23.50
2018-10-11T18:30:59.574Z,20.92
2018-10-11T18:33:27.770Z,21.95
2018-10-11T18:35:55.958Z,19.87
2018-10-11T18:38:24.126Z,27.95
2018-10-11T18:40:52.359Z,19.90
2018-10-11T18:43:20.502Z,21.57
2018-10-11T18:45:48.711Z,23.20
2018-10-11T18:48:17.347Z,20.77
2018-10-11T18:50:45.537Z,20.37
2018-10-11T18:53:13.658Z,27.30
2018-10-11T18:55:41.858Z,20.08
2018-10-11T18:58:10.274Z,23.73
2018-10-11T19:00:38.431Z,25.52
2018-10-11T19:03:06.651Z,21.27
2018-10-11T19:05:34.807Z,25.52
2018-10-11T19:08:02.997Z,24.87
2018-10-11T19:10:31.171Z,21.65
2018-10-11T19:12:59.369Z,22.48
2018-10-11T19:15:27.546Z,24.25
2018-10-11T19:17:55.742Z,20.35
2018-10-11T19:20:23.921Z,21.97
2018-10-11T19:22:52.260Z,22.05
2018-10-11T19:25:20.397Z,22.40
2018-10-11T19:27:48.617Z,28.32
2018-10-11T19:30:16.806Z,20.48
2018-10-11T19:32:45.002Z,19.87
2018-10-11T19:35:13.138Z,19.57
2018-10-11T19:37:41.347Z,21.40
2018-10-11T19:40:09.519Z,19.57
2018-10-11T19:42:37.746Z,18.70
2018-10-11T19:45:05.882Z,17.37
2018-10-11T19:47:34.093Z,24.18
2018-10-11T19:50:02.265Z,25.30
2018-10-11T19:52:30.473Z,19.57
2018-10-11T19:54:58.631Z,19.87
2018-10-11T19:57:26.822Z,19.40
2018-10-11T19:59:55.046Z,23.30
2018-10-11T20:02:23.214Z,25.55
2018-10-11T20:04:51.437Z,20.20
2018-10-11T20:07:20.485Z,24.57
2018-10-11T20:09:48.688Z,23.73
2018-10-11T20:12:16.773Z,26.95
2018-10-11T20:14:44.951Z,19.77
2018-10-11T20:17:13.206Z,20.27
2018-10-11T20:19:41.329Z,22.35
2018-10-11T20:22:10.258Z,29.50
2018-10-11T20:24:38.434Z,24.40
2018-10-11T20:27:06.938Z,27.75
2018-10-11T20:29:35.442Z,26.00
2018-10-11T20:32:03.595Z,21.17
2018-10-11T20:34:31.917Z,25.52
2018-10-11T20:37:00.058Z,20.45
2018-10-11T20:39:28.158Z,23.32
2018-10-11T20:41:56.264Z,22.05
2018-10-11T20:44:24.427Z,20.40
2018-10-11T20:46:52.661Z,25.52
2018-10-11T20:49:20.811Z,19.92
2018-10-11T20:51:49.006Z,25.40
2018-10-11T20:54:17.234Z,21.37
2018-10-11T20:56:45.398Z,24.20
2018-10-11T20:59:13.550Z,22.50
2018-10-11T21:01:41.750Z,22.85
2018-10-11T21:04:09.930Z,21.75
2018-10-11T21:06:38.224Z,27.20
2018-10-11T21:09:08.226Z,23.65
2018-10-11T21:11:36.351Z,27.70
2018-10-11T21:14:04.513Z,25.20
2018-10-11T21:16:32.802Z,23.18
2018-10-11T21:19:00.893Z,27.85
2018-10-11T21:21:29.419Z,26.90
2018-10-11T21:23:57.577Z,28.00
2018-10-11T21:26:25.682Z,26.42
2018-10-11T21:28:53.850Z,22.25
2018-10-11T21:31:22.058Z,23.87
2018-10-11T21:33:50.228Z,27.35
2018-10-11T21:36:18.419Z,24.15
2018-10-11T21:38:46.596Z,29.00
2018-10-11T21:41:14.775Z,26.00
2018-10-11T21:43:42.955Z,23.40
2018-10-11T21:46:11.216Z,28.50
2018-10-11T21:48:39.325Z,27.70
2018-10-11T21:51:07.422Z,35.28
2018-10-11T21:53:35.605Z,25.77
2018-10-11T21:56:03.798Z,24.35
2018-10-11T21:58:31.969Z,26.15
2018-10-11T22:01:05.557Z,24.65
2018-10-11T22:03:33.714Z,22.25
2018-10-11T22:06:01.856Z,26.00
2018-10-11T22:08:30.079Z,27.80
2018-10-11T22:10:58.231Z,26.00
2018-10-11T22:13:26.428Z,25.52
2018-10-11T22:15:54.605Z,25.12
2018-10-11T22:18:23.144Z,25.50
2018-10-11T22:20:51.432Z,27.10
2018-10-11T22:23:19.614Z,24.75
2018-10-11T22:25:47.759Z,25.82
2018-10-11T22:28:15.960Z,25.27
2018-10-11T22:30:44.134Z,30.25
2018-10-11T22:33:12.334Z,26.07
2018-10-11T22:35:40.511Z,23.60
2018-10-11T22:38:08.706Z,25.25
2018-10-11T22:40:36.890Z,31.35
2018-10-11T22:43:05.094Z,26.02
2018-10-11T22:45:33.266Z,28.15
2018-10-11T22:48:01.470Z,28.10
2018-10-11T22:50:29.642Z,28.12
2018-10-11T22:52:57.843Z,28.90
2018-10-11T22:55:30.346Z,26.60
2018-10-11T22:57:58.527Z,26.05
2018-10-11T23:00:26.711Z,28.85
2018-10-11T23:02:55.025Z,29.05
2018-10-11T23:05:23.398Z,27.25
2018-10-11T23:07:51.578Z,29.65
2018-10-11T23:10:20.190Z,27.62
2018-10-11T23:12:48.346Z,24.67
2018-10-11T23:15:16.542Z,27.00
2018-10-11T23:17:44.721Z,26.12
2018-10-11T23:20:12.916Z,28.15
2018-10-11T23:22:41.925Z,28.30
2018-10-11T23:25:10.718Z,27.85
2018-10-11T23:27:39.335Z,27.15
2018-10-11T23:30:08.085Z,30.20
2018-10-11T23:32:36.199Z,28.55
2018-10-11T23:35:05.291Z,29.07
2018-10-11T23:37:33.492Z,28.95
2018-10-11T23:40:01.691Z,31.05
2018-10-11T23:42:29.854Z,29.70
2018-10-11T23:44:58.042Z,36.20
2018-10-11T23:47:26.227Z,29.98
2018-10-11T23:49:54.462Z,35.13
2018-10-11T23:52:22.603Z,29.37
2018-10-11T23:54:50.798Z,32.85
2018-10-11T23:57:18.994Z,37.17
2018-10-11T23:59:47.178Z,33.65
